sensor_id;sensor_type;location;lat;lon;timestamp;P1;durP1;ratioP1;P2;durP2;ratioP2
21091;SDS011;10704;42.678;23.288;2022-09-09T00:00:23;17.67;;;12.65;;
21091;SDS011;10704;42.678;23.288;2022-09-09T00:05:24;17.35;;;12.32;;
21091;SDS011;10704;42.678;23.288;2022-09-09T00:07:53;14.52;;;11.70;;
21091;SDS011;10704;42.678;23.288;2022-09-09T00:13:05;14.30;;;10.98;;
21091;SDS011;10704;42.678;23.288;2022-09-09T00:23:39;16.30;;;12.50;;
21091;SDS011;10704;42.678;23.288;2022-09-09T00:26:32;15.13;;;12.43;;
21091;SDS011;10704;42.678;23.288;2022-09-09T00:29:18;15.20;;;11.93;;
21091;SDS011;10704;42.678;23.288;2022-09-09T00:32:24;19.42;;;12.60;;
21091;SDS011;10704;42.678;23.288;2022-09-09T00:35:14;14.27;;;12.32;;
21091;SDS011;10704;42.678;23.288;2022-09-09T00:38:14;19.17;;;12.32;;
21091;SDS011;10704;42.678;23.288;2022-09-09T00:43:37;17.40;;;13.60;;
21091;SDS011;10704;42.678;23.288;2022-09-09T00:46:10;20.45;;;12.27;;
21091;SDS011;10704;42.678;23.288;2022-09-09T00:51:33;19.02;;;13.18;;
21091;SDS011;10704;42.678;23.288;2022-09-09T00:59:51;15.98;;;12.45;;
21091;SDS011;10704;42.678;23.288;2022-09-09T01:02:26;18.95;;;13.30;;
21091;SDS011;10704;42.678;23.288;2022-09-09T01:04:54;25.48;;;13.65;;
21091;SDS011;10704;42.678;23.288;2022-09-09T01:07:24;16.80;;;12.85;;
21091;SDS011;10704;42.678;23.288;2022-09-09T01:09:57;15.80;;;12.80;;
21091;SDS011;10704;42.678;23.288;2022-09-09T01:12:25;19.13;;;12.65;;
21091;SDS011;10704;42.678;23.288;2022-09-09T01:15:10;16.15;;;13.30;;
21091;SDS011;10704;42.678;23.288;2022-09-09T01:17:50;18.23;;;12.95;;
21091;SDS011;10704;42.678;23.288;2022-09-09T01:28:50;17.33;;;12.05;;
21091;SDS011;10704;42.678;23.288;2022-09-09T01:31:29;17.95;;;11.82;;
21091;SDS011;10704;42.678;23.288;2022-09-09T01:34:14;19.38;;;13.80;;
21091;SDS011;10704;42.678;23.288;2022-09-09T01:36:43;17.83;;;13.98;;
21091;SDS011;10704;42.678;23.288;2022-09-09T01:39:13;19.45;;;12.80;;
21091;SDS011;10704;42.678;23.288;2022-09-09T01:41:40;18.63;;;14.68;;
21091;SDS011;10704;42.678;23.288;2022-09-09T01:44:09;18.95;;;13.50;;
21091;SDS011;10704;42.678;23.288;2022-09-09T01:46:38;15.13;;;12.52;;
21091;SDS011;10704;42.678;23.288;2022-09-09T01:49:07;16.65;;;13.52;;
21091;SDS011;10704;42.678;23.288;2022-09-09T01:51:34;16.27;;;12.15;;
21091;SDS011;10704;42.678;23.288;2022-09-09T01:54:05;15.25;;;11.95;;
21091;SDS011;10704;42.678;23.288;2022-09-09T02:01:57;16.83;;;12.00;;
21091;SDS011;10704;42.678;23.288;2022-09-09T02:04:36;21.52;;;13.63;;
21091;SDS011;10704;42.678;23.288;2022-09-09T02:07:31;16.30;;;11.85;;
21091;SDS011;10704;42.678;23.288;2022-09-09T02:10:24;17.70;;;12.85;;
21091;SDS011;10704;42.678;23.288;2022-09-09T02:13:16;18.20;;;13.10;;
21091;SDS011;10704;42.678;23.288;2022-09-09T02:21:10;16.77;;;13.60;;
21091;SDS011;10704;42.678;23.288;2022-09-09T02:23:39;14.80;;;13.20;;
21091;SDS011;10704;42.678;23.288;2022-09-09T02:26:10;18.95;;;14.40;;
21091;SDS011;10704;42.678;23.288;2022-09-09T02:28:41;18.15;;;14.95;;
21091;SDS011;10704;42.678;23.288;2022-09-09T02:31:07;21.55;;;14.23;;
21091;SDS011;10704;42.678;23.288;2022-09-09T02:33:43;27.83;;;13.95;;
21091;SDS011;10704;42.678;23.288;2022-09-09T02:36:13;18.83;;;14.45;;
21091;SDS011;10704;42.678;23.288;2022-09-09T02:38:45;21.08;;;15.05;;
21091;SDS011;10704;42.678;23.288;2022-09-09T02:41:20;21.08;;;14.75;;
21091;SDS011;10704;42.678;23.288;2022-09-09T02:43:51;19.15;;;14.63;;
21091;SDS011;10704;42.678;23.288;2022-09-09T02:58:03;22.95;;;14.60;;
21091;SDS011;10704;42.678;23.288;2022-09-09T03:00:33;15.18;;;13.07;;
21091;SDS011;10704;42.678;23.288;2022-09-09T03:03:02;16.55;;;13.82;;
21091;SDS011;10704;42.678;23.288;2022-09-09T03:05:30;19.80;;;14.00;;
21091;SDS011;10704;42.678;23.288;2022-09-09T03:07:57;16.83;;;14.98;;
21091;SDS011;10704;42.678;23.288;2022-09-09T03:10:24;19.70;;;15.57;;
21091;SDS011;10704;42.678;23.288;2022-09-09T03:12:50;15.70;;;13.20;;
21091;SDS011;10704;42.678;23.288;2022-09-09T03:15:16;18.35;;;14.88;;
21091;SDS011;10704;42.678;23.288;2022-09-09T03:17:42;21.02;;;14.95;;
21091;SDS011;10704;42.678;23.288;2022-09-09T03:20:08;19.02;;;14.80;;
21091;SDS011;10704;42.678;23.288;2022-09-09T03:22:36;20.33;;;14.73;;
21091;SDS011;10704;42.678;23.288;2022-09-09T03:25:02;23.30;;;15.40;;
21091;SDS011;10704;42.678;23.288;2022-09-09T03:27:29;19.90;;;15.95;;
21091;SDS011;10704;42.678;23.288;2022-09-09T03:29:56;24.95;;;15.27;;
21091;SDS011;10704;42.678;23.288;2022-09-09T03:32:24;18.77;;;14.50;;
21091;SDS011;10704;42.678;23.288;2022-09-09T03:34:52;21.48;;;14.35;;
21091;SDS011;10704;42.678;23.288;2022-09-09T03:37:19;21.75;;;14.85;;
21091;SDS011;10704;42.678;23.288;2022-09-09T03:39:48;20.20;;;14.00;;
21091;SDS011;10704;42.678;23.288;2022-09-09T03:42:16;22.70;;;14.40;;
21091;SDS011;10704;42.678;23.288;2022-09-09T03:44:47;18.95;;;14.35;;
21091;SDS011;10704;42.678;23.288;2022-09-09T03:47:18;20.33;;;14.30;;
21091;SDS011;10704;42.678;23.288;2022-09-09T03:49:45;18.98;;;15.20;;
21091;SDS011;10704;42.678;23.288;2022-09-09T03:52:11;18.33;;;14.73;;
21091;SDS011;10704;42.678;23.288;2022-09-09T03:54:38;17.75;;;13.93;;
21091;SDS011;10704;42.678;23.288;2022-09-09T03:57:04;26.77;;;15.77;;
21091;SDS011;10704;42.678;23.288;2022-09-09T03:59:30;19.48;;;14.57;;
21091;SDS011;10704;42.678;23.288;2022-09-09T04:01:56;22.40;;;15.95;;
21091;SDS011;10704;42.678;23.288;2022-09-09T04:04:24;22.20;;;15.30;;
21091;SDS011;10704;42.678;23.288;2022-09-09T04:06:52;21.13;;;15.40;;
21091;SDS011;10704;42.678;23.288;2022-09-09T04:09:18;22.20;;;16.35;;
21091;SDS011;10704;42.678;23.288;2022-09-09T04:11:44;19.45;;;15.20;;
21091;SDS011;10704;42.678;23.288;2022-09-09T04:14:11;20.45;;;15.18;;
21091;SDS011;10704;42.678;23.288;2022-09-09T04:16:38;22.00;;;15.38;;
21091;SDS011;10704;42.678;23.288;2022-09-09T04:19:04;24.42;;;16.73;;
21091;SDS011;10704;42.678;23.288;2022-09-09T04:21:33;24.13;;;16.55;;
21091;SDS011;10704;42.678;23.288;2022-09-09T04:24:01;23.60;;;16.83;;
21091;SDS011;10704;42.678;23.288;2022-09-09T04:26:27;22.45;;;16.67;;
21091;SDS011;10704;42.678;23.288;2022-09-09T04:28:53;23.60;;;16.58;;
21091;SDS011;10704;42.678;23.288;2022-09-09T04:31:20;24.35;;;15.82;;
21091;SDS011;10704;42.678;23.288;2022-09-09T04:33:50;23.00;;;16.23;;
21091;SDS011;10704;42.678;23.288;2022-09-09T04:36:16;27.95;;;16.98;;
21091;SDS011;10704;42.678;23.288;2022-09-09T04:38:45;29.23;;;17.02;;
21091;SDS011;10704;42.678;23.288;2022-09-09T04:41:13;29.95;;;16.80;;
21091;SDS011;10704;42.678;23.288;2022-09-09T04:43:42;29.58;;;17.88;;
21091;SDS011;10704;42.678;23.288;2022-09-09T04:46:08;27.45;;;15.02;;
21091;SDS011;10704;42.678;23.288;2022-09-09T04:48:34;24.33;;;16.98;;
21091;SDS011;10704;42.678;23.288;2022-09-09T04:51:04;21.48;;;16.42;;
21091;SDS011;10704;42.678;23.288;2022-09-09T04:53:32;26.10;;;16.90;;
21091;SDS011;10704;42.678;23.288;2022-09-09T04:56:05;24.38;;;16.40;;
21091;SDS011;10704;42.678;23.288;2022-09-09T04:58:35;20.23;;;15.95;;
21091;SDS011;10704;42.678;23.288;2022-09-09T05:01:04;22.25;;;16.95;;
21091;SDS011;10704;42.678;23.288;2022-09-09T05:07:24;22.70;;;14.95;;
21091;SDS011;10704;42.678;23.288;2022-09-09T05:09:52;21.65;;;16.92;;
21091;SDS011;10704;42.678;23.288;2022-09-09T05:12:18;18.65;;;15.63;;
21091;SDS011;10704;42.678;23.288;2022-09-09T05:14:49;19.80;;;15.50;;
21091;SDS011;10704;42.678;23.288;2022-09-09T05:17:15;19.38;;;15.95;;
21091;SDS011;10704;42.678;23.288;2022-09-09T05:19:41;19.92;;;15.88;;
21091;SDS011;10704;42.678;23.288;2022-09-09T05:22:08;21.52;;;16.90;;
21091;SDS011;10704;42.678;23.288;2022-09-09T05:24:41;21.90;;;17.17;;
21091;SDS011;10704;42.678;23.288;2022-09-09T05:27:08;21.40;;;17.08;;
21091;SDS011;10704;42.678;23.288;2022-09-09T05:29:37;19.35;;;16.08;;
21091;SDS011;10704;42.678;23.288;2022-09-09T05:32:06;24.25;;;17.20;;
21091;SDS011;10704;42.678;23.288;2022-09-09T05:34:34;19.48;;;15.30;;
21091;SDS011;10704;42.678;23.288;2022-09-09T05:37:00;20.65;;;15.20;;
21091;SDS011;10704;42.678;23.288;2022-09-09T05:39:26;25.65;;;15.77;;
21091;SDS011;10704;42.678;23.288;2022-09-09T05:41:53;21.58;;;16.55;;
21091;SDS011;10704;42.678;23.288;2022-09-09T05:44:19;20.15;;;15.13;;
21091;SDS011;10704;42.678;23.288;2022-09-09T05:46:45;20.27;;;15.30;;
21091;SDS011;10704;42.678;23.288;2022-09-09T05:49:12;20.13;;;15.77;;
21091;SDS011;10704;42.678;23.288;2022-09-09T05:51:40;19.45;;;15.73;;
21091;SDS011;10704;42.678;23.288;2022-09-09T05:54:09;20.25;;;15.25;;
21091;SDS011;10704;42.678;23.288;2022-09-09T05:56:40;20.73;;;15.38;;
21091;SDS011;10704;42.678;23.288;2022-09-09T05:59:07;22.25;;;13.65;;
21091;SDS011;10704;42.678;23.288;2022-09-09T06:01:34;21.13;;;14.88;;
21091;SDS011;10704;42.678;23.288;2022-09-09T06:04:01;25.23;;;16.80;;
21091;SDS011;10704;42.678;23.288;2022-09-09T06:06:30;23.30;;;17.55;;
21091;SDS011;10704;42.678;23.288;2022-09-09T06:09:04;30.42;;;18.65;;
21091;SDS011;10704;42.678;23.288;2022-09-09T06:11:34;25.02;;;18.40;;
21091;SDS011;10704;42.678;23.288;2022-09-09T06:14:02;26.38;;;16.02;;
21091;SDS011;10704;42.678;23.288;2022-09-09T06:16:29;20.50;;;16.25;;
21091;SDS011;10704;42.678;23.288;2022-09-09T06:18:58;23.65;;;15.57;;
21091;SDS011;10704;42.678;23.288;2022-09-09T06:21:27;23.92;;;16.48;;
21091;SDS011;10704;42.678;23.288;2022-09-09T06:23:55;30.30;;;19.60;;
21091;SDS011;10704;42.678;23.288;2022-09-09T06:26:22;24.65;;;18.48;;
21091;SDS011;10704;42.678;23.288;2022-09-09T06:28:52;23.27;;;16.10;;
21091;SDS011;10704;42.678;23.288;2022-09-09T06:31:21;24.67;;;16.10;;
21091;SDS011;10704;42.678;23.288;2022-09-09T06:33:49;21.58;;;15.05;;
21091;SDS011;10704;42.678;23.288;2022-09-09T06:36:20;21.95;;;14.30;;
21091;SDS011;10704;42.678;23.288;2022-09-09T06:38:48;17.65;;;14.20;;
21091;SDS011;10704;42.678;23.288;2022-09-09T06:41:15;24.08;;;14.90;;
21091;SDS011;10704;42.678;23.288;2022-09-09T06:43:44;20.13;;;14.90;;
21091;SDS011;10704;42.678;23.288;2022-09-09T06:46:12;23.15;;;17.10;;
21091;SDS011;10704;42.678;23.288;2022-09-09T06:48:39;21.90;;;15.68;;
21091;SDS011;10704;42.678;23.288;2022-09-09T06:51:11;17.90;;;14.25;;
21091;SDS011;10704;42.678;23.288;2022-09-09T06:53:46;24.70;;;15.05;;
21091;SDS011;10704;42.678;23.288;2022-09-09T06:58:44;19.25;;;13.90;;
21091;SDS011;10704;42.678;23.288;2022-09-09T07:01:16;20.58;;;14.73;;
21091;SDS011;10704;42.678;23.288;2022-09-09T07:03:46;19.85;;;14.70;;
21091;SDS011;10704;42.678;23.288;2022-09-09T07:06:20;17.15;;;13.35;;
21091;SDS011;10704;42.678;23.288;2022-09-09T07:08:51;21.80;;;15.02;;
21091;SDS011;10704;42.678;23.288;2022-09-09T07:11:28;24.35;;;14.70;;
21091;SDS011;10704;42.678;23.288;2022-09-09T07:13:59;25.30;;;14.43;;
21091;SDS011;10704;42.678;23.288;2022-09-09T07:16:26;18.02;;;14.98;;
21091;SDS011;10704;42.678;23.288;2022-09-09T07:18:56;20.55;;;14.13;;
21091;SDS011;10704;42.678;23.288;2022-09-09T07:21:27;20.20;;;15.50;;
21091;SDS011;10704;42.678;23.288;2022-09-09T07:23:54;18.55;;;14.98;;
21091;SDS011;10704;42.678;23.288;2022-09-09T07:26:22;22.92;;;15.10;;
21091;SDS011;10704;42.678;23.288;2022-09-09T07:28:52;21.35;;;14.60;;
21091;SDS011;10704;42.678;23.288;2022-09-09T07:31:24;21.05;;;15.52;;
21091;SDS011;10704;42.678;23.288;2022-09-09T07:34:03;24.65;;;14.48;;
21091;SDS011;10704;42.678;23.288;2022-09-09T07:36:35;22.45;;;13.05;;
21091;SDS011;10704;42.678;23.288;2022-09-09T07:39:09;19.63;;;13.55;;
21091;SDS011;10704;42.678;23.288;2022-09-09T07:41:38;18.75;;;13.65;;
21091;SDS011;10704;42.678;23.288;2022-09-09T07:44:08;22.70;;;13.02;;
21091;SDS011;10704;42.678;23.288;2022-09-09T07:46:36;19.15;;;12.40;;
21091;SDS011;10704;42.678;23.288;2022-09-09T07:49:06;15.80;;;11.57;;
21091;SDS011;10704;42.678;23.288;2022-09-09T07:51:34;15.57;;;11.20;;
21091;SDS011;10704;42.678;23.288;2022-09-09T07:54:03;19.85;;;11.35;;
21091;SDS011;10704;42.678;23.288;2022-09-09T07:56:33;19.60;;;11.52;;
21091;SDS011;10704;42.678;23.288;2022-09-09T07:59:00;13.15;;;10.45;;
21091;SDS011;10704;42.678;23.288;2022-09-09T08:01:31;14.80;;;10.50;;
21091;SDS011;10704;42.678;23.288;2022-09-09T08:04:00;19.55;;;10.45;;
21091;SDS011;10704;42.678;23.288;2022-09-09T08:06:29;16.38;;;10.18;;
21091;SDS011;10704;42.678;23.288;2022-09-09T08:09:02;16.45;;;10.25;;
21091;SDS011;10704;42.678;23.288;2022-09-09T08:11:30;15.73;;;9.90;;
21091;SDS011;10704;42.678;23.288;2022-09-09T08:13:56;21.70;;;10.90;;
21091;SDS011;10704;42.678;23.288;2022-09-09T08:16:23;18.40;;;9.57;;
21091;SDS011;10704;42.678;23.288;2022-09-09T08:18:51;14.93;;;9.57;;
21091;SDS011;10704;42.678;23.288;2022-09-09T08:21:26;14.52;;;8.88;;
21091;SDS011;10704;42.678;23.288;2022-09-09T08:23:55;13.60;;;8.70;;
21091;SDS011;10704;42.678;23.288;2022-09-09T08:26:27;15.50;;;9.95;;
21091;SDS011;10704;42.678;23.288;2022-09-09T08:28:55;14.52;;;10.10;;
21091;SDS011;10704;42.678;23.288;2022-09-09T08:31:31;10.85;;;8.73;;
21091;SDS011;10704;42.678;23.288;2022-09-09T08:34:04;14.82;;;8.82;;
21091;SDS011;10704;42.678;23.288;2022-09-09T08:36:34;13.80;;;8.95;;
21091;SDS011;10704;42.678;23.288;2022-09-09T08:39:03;12.32;;;8.88;;
21091;SDS011;10704;42.678;23.288;2022-09-09T08:52:18;12.20;;;7.57;;
21091;SDS011;10704;42.678;23.288;2022-09-09T08:54:51;14.98;;;8.82;;
21091;SDS011;10704;42.678;23.288;2022-09-09T08:57:25;16.25;;;8.57;;
21091;SDS011;10704;42.678;23.288;2022-09-09T08:59:53;17.33;;;8.95;;
21091;SDS011;10704;42.678;23.288;2022-09-09T09:05:42;11.63;;;7.45;;
21091;SDS011;10704;42.678;23.288;2022-09-09T09:13:37;15.20;;;7.90;;
21091;SDS011;10704;42.678;23.288;2022-09-09T09:19:04;15.02;;;9.27;;
21091;SDS011;10704;42.678;23.288;2022-09-09T09:21:39;14.35;;;8.20;;
21091;SDS011;10704;42.678;23.288;2022-09-09T09:27:16;12.73;;;8.85;;
21091;SDS011;10704;42.678;23.288;2022-09-09T09:30:02;14.52;;;7.95;;
21091;SDS011;10704;42.678;23.288;2022-09-09T09:33:05;37.47;;;21.15;;
21091;SDS011;10704;42.678;23.288;2022-09-09T09:35:41;24.00;;;12.32;;
21091;SDS011;10704;42.678;23.288;2022-09-09T09:38:16;12.68;;;8.07;;
21091;SDS011;10704;42.678;23.288;2022-09-09T09:41:05;14.35;;;7.32;;
21091;SDS011;10704;42.678;23.288;2022-09-09T09:43:32;14.35;;;9.10;;
21091;SDS011;10704;42.678;23.288;2022-09-09T09:46:03;14.02;;;7.82;;
21091;SDS011;10704;42.678;23.288;2022-09-09T09:48:30;11.10;;;7.43;;
21091;SDS011;10704;42.678;23.288;2022-09-09T09:50:58;14.23;;;7.82;;
21091;SDS011;10704;42.678;23.288;2022-09-09T09:53:29;11.98;;;8.40;;
21091;SDS011;10704;42.678;23.288;2022-09-09T09:56:09;10.43;;;7.55;;
21091;SDS011;10704;42.678;23.288;2022-09-09T10:01:29;18.27;;;7.72;;
21091;SDS011;10704;42.678;23.288;2022-09-09T10:04:22;13.50;;;7.50;;
21091;SDS011;10704;42.678;23.288;2022-09-09T10:06:53;12.93;;;7.95;;
21091;SDS011;10704;42.678;23.288;2022-09-09T10:09:23;11.63;;;8.23;;
21091;SDS011;10704;42.678;23.288;2022-09-09T10:14:40;15.00;;;9.27;;
21091;SDS011;10704;42.678;23.288;2022-09-09T10:19:58;12.32;;;8.07;;
21091;SDS011;10704;42.678;23.288;2022-09-09T10:22:57;13.93;;;8.70;;
21091;SDS011;10704;42.678;23.288;2022-09-09T10:25:42;12.60;;;8.75;;
21091;SDS011;10704;42.678;23.288;2022-09-09T10:31:51;13.25;;;9.35;;
21091;SDS011;10704;42.678;23.288;2022-09-09T10:37:30;14.45;;;8.95;;
21091;SDS011;10704;42.678;23.288;2022-09-09T10:56:13;15.82;;;9.27;;
21091;SDS011;10704;42.678;23.288;2022-09-09T11:01:20;17.65;;;11.00;;
21091;SDS011;10704;42.678;23.288;2022-09-09T11:04:13;22.15;;;11.63;;
21091;SDS011;10704;42.678;23.288;2022-09-09T11:06:48;12.93;;;9.77;;
21091;SDS011;10704;42.678;23.288;2022-09-09T11:09:21;18.20;;;10.18;;
21091;SDS011;10704;42.678;23.288;2022-09-09T11:11:53;17.55;;;9.98;;
21091;SDS011;10704;42.678;23.288;2022-09-09T11:14:22;16.88;;;10.48;;
21091;SDS011;10704;42.678;23.288;2022-09-09T11:16:57;18.33;;;10.13;;
21091;SDS011;10704;42.678;23.288;2022-09-09T11:19:35;17.05;;;10.07;;
21091;SDS011;10704;42.678;23.288;2022-09-09T11:24:48;21.92;;;9.68;;
21091;SDS011;10704;42.678;23.288;2022-09-09T11:36:00;17.45;;;10.02;;
21091;SDS011;10704;42.678;23.288;2022-09-09T11:38:47;20.23;;;9.95;;
21091;SDS011;10704;42.678;23.288;2022-09-09T11:41:17;22.20;;;9.88;;
21091;SDS011;10704;42.678;23.288;2022-09-09T11:46:22;15.68;;;9.88;;
21091;SDS011;10704;42.678;23.288;2022-09-09T11:49:06;16.10;;;9.48;;
21091;SDS011;10704;42.678;23.288;2022-09-09T11:51:52;19.98;;;10.52;;
21091;SDS011;10704;42.678;23.288;2022-09-09T11:54:31;21.92;;;10.75;;
21091;SDS011;10704;42.678;23.288;2022-09-09T11:57:04;14.35;;;9.65;;
21091;SDS011;10704;42.678;23.288;2022-09-09T11:59:49;16.00;;;10.52;;
21091;SDS011;10704;42.678;23.288;2022-09-09T12:02:29;19.48;;;10.45;;
21091;SDS011;10704;42.678;23.288;2022-09-09T12:05:09;16.80;;;9.52;;
21091;SDS011;10704;42.678;23.288;2022-09-09T12:07:41;21.77;;;10.05;;
21091;SDS011;10704;42.678;23.288;2022-09-09T12:15:57;19.00;;;10.55;;
21091;SDS011;10704;42.678;23.288;2022-09-09T12:18:25;17.08;;;11.00;;
21091;SDS011;10704;42.678;23.288;2022-09-09T12:23:39;16.88;;;10.30;;
21091;SDS011;10704;42.678;23.288;2022-09-09T12:32:22;17.42;;;9.93;;
21091;SDS011;10704;42.678;23.288;2022-09-09T12:40:06;12.20;;;8.95;;
21091;SDS011;10704;42.678;23.288;2022-09-09T12:42:41;16.77;;;9.25;;
21091;SDS011;10704;42.678;23.288;2022-09-09T12:47:54;19.20;;;7.80;;
21091;SDS011;10704;42.678;23.288;2022-09-09T12:50:22;16.73;;;7.47;;
21091;SDS011;10704;42.678;23.288;2022-09-09T12:52:52;18.17;;;7.63;;
21091;SDS011;10704;42.678;23.288;2022-09-09T12:55:30;15.38;;;7.13;;
21091;SDS011;10704;42.678;23.288;2022-09-09T12:57:59;13.98;;;6.35;;
21091;SDS011;10704;42.678;23.288;2022-09-09T13:00:29;17.23;;;7.28;;
21091;SDS011;10704;42.678;23.288;2022-09-09T13:03:00;13.68;;;8.25;;
21091;SDS011;10704;42.678;23.288;2022-09-09T13:05:34;14.73;;;6.90;;
21091;SDS011;10704;42.678;23.288;2022-09-09T13:08:12;13.20;;;7.10;;
21091;SDS011;10704;42.678;23.288;2022-09-09T13:10:49;16.15;;;6.63;;
21091;SDS011;10704;42.678;23.288;2022-09-09T13:13:37;9.90;;;6.57;;
21091;SDS011;10704;42.678;23.288;2022-09-09T13:16:05;16.17;;;8.55;;
21091;SDS011;10704;42.678;23.288;2022-09-09T13:18:43;16.33;;;7.18;;
21091;SDS011;10704;42.678;23.288;2022-09-09T13:21:09;17.67;;;7.88;;
21091;SDS011;10704;42.678;23.288;2022-09-09T13:23:36;11.63;;;7.25;;
21091;SDS011;10704;42.678;23.288;2022-09-09T13:26:03;17.10;;;8.88;;
21091;SDS011;10704;42.678;23.288;2022-09-09T13:28:54;18.08;;;9.20;;
21091;SDS011;10704;42.678;23.288;2022-09-09T13:31:32;19.95;;;9.73;;
21091;SDS011;10704;42.678;23.288;2022-09-09T13:34:10;16.67;;;8.80;;
21091;SDS011;10704;42.678;23.288;2022-09-09T13:36:38;19.25;;;8.40;;
21091;SDS011;10704;42.678;23.288;2022-09-09T13:39:13;21.98;;;9.95;;
21091;SDS011;10704;42.678;23.288;2022-09-09T13:41:43;22.48;;;11.23;;
21091;SDS011;10704;42.678;23.288;2022-09-09T13:44:17;15.60;;;9.30;;
21091;SDS011;10704;42.678;23.288;2022-09-09T13:49:45;13.70;;;6.03;;
21091;SDS011;10704;42.678;23.288;2022-09-09T13:52:15;14.70;;;6.35;;
21091;SDS011;10704;42.678;23.288;2022-09-09T13:54:46;21.73;;;8.88;;
21091;SDS011;10704;42.678;23.288;2022-09-09T13:57:25;23.08;;;10.52;;
21091;SDS011;10704;42.678;23.288;2022-09-09T13:59:52;19.45;;;10.32;;
21091;SDS011;10704;42.678;23.288;2022-09-09T14:02:19;18.05;;;9.30;;
21091;SDS011;10704;42.678;23.288;2022-09-09T14:04:48;17.73;;;9.90;;
21091;SDS011;10704;42.678;23.288;2022-09-09T14:07:16;21.90;;;9.90;;
21091;SDS011;10704;42.678;23.288;2022-09-09T14:09:43;14.63;;;9.30;;
21091;SDS011;10704;42.678;23.288;2022-09-09T14:12:15;17.40;;;9.40;;
21091;SDS011;10704;42.678;23.288;2022-09-09T14:14:42;15.15;;;8.48;;
21091;SDS011;10704;42.678;23.288;2022-09-09T14:17:09;14.68;;;8.88;;
21091;SDS011;10704;42.678;23.288;2022-09-09T14:19:35;19.08;;;8.05;;
21091;SDS011;10704;42.678;23.288;2022-09-09T14:22:02;18.42;;;8.40;;
21091;SDS011;10704;42.678;23.288;2022-09-09T14:24:28;20.30;;;8.48;;
21091;SDS011;10704;42.678;23.288;2022-09-09T14:26:54;15.38;;;8.98;;
21091;SDS011;10704;42.678;23.288;2022-09-09T14:29:21;14.65;;;8.98;;
21091;SDS011;10704;42.678;23.288;2022-09-09T14:31:47;21.17;;;9.75;;
21091;SDS011;10704;42.678;23.288;2022-09-09T14:34:13;24.35;;;9.25;;
21091;SDS011;10704;42.678;23.288;2022-09-09T14:36:39;17.75;;;9.90;;
21091;SDS011;10704;42.678;23.288;2022-09-09T14:39:07;15.93;;;10.02;;
21091;SDS011;10704;42.678;23.288;2022-09-09T14:41:33;17.52;;;9.60;;
21091;SDS011;10704;42.678;23.288;2022-09-09T14:43:59;17.73;;;9.65;;
21091;SDS011;10704;42.678;23.288;2022-09-09T14:46:25;20.38;;;10.20;;
21091;SDS011;10704;42.678;23.288;2022-09-09T14:48:52;18.10;;;9.43;;
21091;SDS011;10704;42.678;23.288;2022-09-09T14:51:20;15.40;;;9.98;;
21091;SDS011;10704;42.678;23.288;2022-09-09T14:53:47;20.73;;;9.25;;
21091;SDS011;10704;42.678;23.288;2022-09-09T14:56:16;20.15;;;10.13;;
21091;SDS011;10704;42.678;23.288;2022-09-09T14:58:44;16.98;;;10.15;;
21091;SDS011;10704;42.678;23.288;2022-09-09T15:01:12;19.92;;;10.23;;
21091;SDS011;10704;42.678;23.288;2022-09-09T15:03:41;20.25;;;10.10;;
21091;SDS011;10704;42.678;23.288;2022-09-09T15:09:55;16.38;;;9.90;;
21091;SDS011;10704;42.678;23.288;2022-09-09T15:12:21;18.02;;;9.90;;
21091;SDS011;10704;42.678;23.288;2022-09-09T15:14:47;18.13;;;10.85;;
21091;SDS011;10704;42.678;23.288;2022-09-09T15:17:13;23.27;;;12.07;;
21091;SDS011;10704;42.678;23.288;2022-09-09T15:19:39;22.73;;;11.75;;
21091;SDS011;10704;42.678;23.288;2022-09-09T15:22:07;15.32;;;10.50;;
21091;SDS011;10704;42.678;23.288;2022-09-09T15:24:34;19.20;;;9.68;;
21091;SDS011;10704;42.678;23.288;2022-09-09T15:27:00;23.88;;;10.13;;
21091;SDS011;10704;42.678;23.288;2022-09-09T15:29:27;18.58;;;9.43;;
21091;SDS011;10704;42.678;23.288;2022-09-09T15:31:53;19.50;;;9.90;;
21091;SDS011;10704;42.678;23.288;2022-09-09T15:34:20;15.68;;;8.90;;
21091;SDS011;10704;42.678;23.288;2022-09-09T15:36:47;18.33;;;9.30;;
21091;SDS011;10704;42.678;23.288;2022-09-09T15:39:13;15.15;;;9.02;;
21091;SDS011;10704;42.678;23.288;2022-09-09T15:41:41;16.17;;;9.98;;
21091;SDS011;10704;42.678;23.288;2022-09-09T15:44:09;25.48;;;9.60;;
21091;SDS011;10704;42.678;23.288;2022-09-09T15:46:44;13.48;;;9.63;;
21091;SDS011;10704;42.678;23.288;2022-09-09T15:49:20;16.13;;;9.55;;
21091;SDS011;10704;42.678;23.288;2022-09-09T15:51:51;23.13;;;9.77;;
21091;SDS011;10704;42.678;23.288;2022-09-09T15:54:19;23.55;;;10.32;;
21091;SDS011;10704;42.678;23.288;2022-09-09T15:56:50;19.33;;;10.25;;
21091;SDS011;10704;42.678;23.288;2022-09-09T15:59:19;17.17;;;10.15;;
21091;SDS011;10704;42.678;23.288;2022-09-09T16:01:46;16.52;;;10.73;;
21091;SDS011;10704;42.678;23.288;2022-09-09T16:04:11;21.63;;;11.38;;
21091;SDS011;10704;42.678;23.288;2022-09-09T16:06:37;16.52;;;9.02;;
21091;SDS011;10704;42.678;23.288;2022-09-09T16:09:05;17.13;;;9.80;;
21091;SDS011;10704;42.678;23.288;2022-09-09T16:11:33;18.13;;;10.57;;
21091;SDS011;10704;42.678;23.288;2022-09-09T16:14:01;16.70;;;11.65;;
21091;SDS011;10704;42.678;23.288;2022-09-09T16:16:28;20.15;;;11.18;;
21091;SDS011;10704;42.678;23.288;2022-09-09T16:18:56;17.20;;;11.82;;
21091;SDS011;10704;42.678;23.288;2022-09-09T16:21:24;19.25;;;10.38;;
21091;SDS011;10704;42.678;23.288;2022-09-09T16:23:51;18.08;;;10.35;;
21091;SDS011;10704;42.678;23.288;2022-09-09T16:26:21;15.95;;;10.73;;
21091;SDS011;10704;42.678;23.288;2022-09-09T16:28:47;20.38;;;11.20;;
21091;SDS011;10704;42.678;23.288;2022-09-09T16:31:18;19.85;;;10.27;;
21091;SDS011;10704;42.678;23.288;2022-09-09T16:33:47;20.98;;;11.88;;
21091;SDS011;10704;42.678;23.288;2022-09-09T16:36:14;22.35;;;11.57;;
21091;SDS011;10704;42.678;23.288;2022-09-09T16:39:03;29.35;;;12.82;;
21091;SDS011;10704;42.678;23.288;2022-09-09T16:44:26;20.52;;;11.88;;
21091;SDS011;10704;42.678;23.288;2022-09-09T16:46:53;25.90;;;12.77;;
21091;SDS011;10704;42.678;23.288;2022-09-09T16:49:20;21.65;;;12.20;;
21091;SDS011;10704;42.678;23.288;2022-09-09T16:51:47;28.92;;;12.85;;
21091;SDS011;10704;42.678;23.288;2022-09-09T16:58:01;31.80;;;19.60;;
21091;SDS011;10704;42.678;23.288;2022-09-09T17:03:22;23.42;;;12.88;;
21091;SDS011;10704;42.678;23.288;2022-09-09T17:09:36;25.77;;;13.82;;
21091;SDS011;10704;42.678;23.288;2022-09-09T17:12:02;24.05;;;14.65;;
21091;SDS011;10704;42.678;23.288;2022-09-09T17:24:48;25.63;;;14.38;;
21091;SDS011;10704;42.678;23.288;2022-09-09T17:27:14;21.27;;;13.38;;
21091;SDS011;10704;42.678;23.288;2022-09-09T17:29:40;31.80;;;14.32;;
21091;SDS011;10704;42.678;23.288;2022-09-09T17:32:06;30.85;;;15.13;;
21091;SDS011;10704;42.678;23.288;2022-09-09T17:34:32;26.60;;;15.65;;
21091;SDS011;10704;42.678;23.288;2022-09-09T17:36:59;31.52;;;19.33;;
21091;SDS011;10704;42.678;23.288;2022-09-09T17:39:25;26.42;;;15.20;;
21091;SDS011;10704;42.678;23.288;2022-09-09T17:41:51;21.73;;;15.18;;